Time;durP1;ratioP1;P1;durP2;ratioP2;P2;SDS_P1;SDS_P2;PMS_P1;PMS_P2;Temp;Humidity;BMP_temperature;BMP_pressure;BME280_temperature;BME280_humidity;BME280_pressure;Samples;Min_cycle;Max_cycle;Signal;HPM_P1;HPM_P2
2023/09/06 00:00:34;;;;;;;6.50;3.22;;;24.50;99.90;;;;;;4976902;28;20491;-75
2023/09/06 00:03:00;;;;;;;4.18;3.47;;;24.40;99.90;;;;;;4977154;28;20031;-75
2023/09/06 00:05:27;;;;;;;5.00;3.58;;;24.40;99.90;;;;;;4977006;28;20388;-73
2023/09/06 00:07:52;;;;;;;4.55;3.50;;;24.40;99.90;;;;;;4977184;28;20105;-74
2023/09/06 00:10:18;;;;;;;4.90;3.85;;;24.40;99.90;;;;;;4977126;28;20106;-75
2023/09/06 00:12:47;;;;;;;7.63;3.85;;;24.40;99.90;;;;;;4977068;28;20460;-75
2023/09/06 00:15:14;;;;;;;5.93;4.28;;;24.40;99.90;;;;;;4976597;28;20023;-70
2023/09/06 00:17:41;;;;;;;9.32;3.80;;;24.40;99.90;;;;;;4976654;28;20031;-70
2023/09/06 00:20:16;;;;;;;7.57;3.45;;;24.40;99.90;;;;;;4976599;28;20031;-70
2023/09/06 00:22:53;;;;;;;5.53;4.15;;;24.40;99.90;;;;;;4975624;28;20480;-70
2023/09/06 00:25:18;;;;;;;6.13;3.60;;;24.30;99.90;;;;;;4976661;28;20555;-70
2023/09/06 00:27:44;;;;;;;4.95;3.65;;;24.30;99.90;;;;;;4976776;28;20031;-71
2023/09/06 00:30:10;;;;;;;4.72;3.42;;;24.30;99.90;;;;;;4976340;28;20031;-74
2023/09/06 00:32:35;;;;;;;5.15;3.50;;;24.30;99.90;;;;;;4976715;28;20492;-70
2023/09/06 00:35:01;;;;;;;5.28;4.55;;;24.30;99.90;;;;;;4976403;28;20380;-71
2023/09/06 00:37:40;;;;;;;5.85;4.18;;;24.30;99.90;;;;;;4976530;28;20122;-72
2023/09/06 00:40:13;;;;;;;6.78;4.35;;;24.30;99.90;;;;;;4976249;28;20019;-71
2023/09/06 00:42:39;;;;;;;4.30;3.70;;;24.30;99.90;;;;;;4976691;28;20074;-73
2023/09/06 00:45:05;;;;;;;10.68;4.22;;;24.20;99.90;;;;;;4976034;28;20054;-69
2023/09/06 00:47:31;;;;;;;6.45;3.70;;;24.20;99.90;;;;;;4976435;28;20440;-69
2023/09/06 00:49:56;;;;;;;5.85;3.50;;;24.20;99.90;;;;;;4976480;28;20516;-70
2023/09/06 00:52:22;;;;;;;4.50;3.65;;;24.20;99.90;;;;;;4976184;28;20054;-70
2023/09/06 00:54:48;;;;;;;6.50;3.83;;;24.10;99.90;;;;;;4976468;28;20468;-71
2023/09/06 00:57:14;;;;;;;7.32;4.10;;;24.10;99.90;;;;;;4976032;28;20026;-69
2023/09/06 00:59:41;;;;;;;8.18;3.90;;;24.10;99.90;;;;;;4975814;28;20034;-70
2023/09/06 01:02:07;;;;;;;7.80;3.85;;;24.10;99.90;;;;;;4976041;28;20023;-70
2023/09/06 01:04:32;;;;;;;4.85;4.32;;;24.10;99.90;;;;;;4976214;28;20491;-69
2023/09/06 01:07:02;;;;;;;8.27;3.83;;;24.10;99.90;;;;;;4976047;28;20158;-71
2023/09/06 01:09:29;;;;;;;7.53;4.28;;;24.10;99.90;;;;;;4975830;28;20098;-69
2023/09/06 01:11:55;;;;;;;6.68;4.20;;;24.00;99.90;;;;;;4975807;28;20019;-70
2023/09/06 01:14:21;;;;;;;8.65;4.22;;;24.00;99.90;;;;;;4975587;28;20034;-71
2023/09/06 01:16:49;;;;;;;6.80;4.60;;;24.00;99.90;;;;;;4975749;28;20023;-73
2023/09/06 01:19:18;;;;;;;8.75;4.60;;;24.00;99.90;;;;;;4975631;28;20551;-74
2023/09/06 01:22:04;;;;;;;6.30;4.60;;;24.00;99.90;;;;;;4974404;28;20047;-70
2023/09/06 01:24:30;;;;;;;6.38;4.57;;;24.00;99.90;;;;;;4975585;28;20117;-69
2023/09/06 01:26:57;;;;;;;5.65;4.00;;;24.00;99.90;;;;;;4973955;28;20070;-72
2023/09/06 01:29:22;;;;;;;7.47;4.40;;;24.00;99.90;;;;;;4974970;28;20073;-72
2023/09/06 01:31:48;;;;;;;8.20;4.90;;;23.90;99.90;;;;;;4975527;28;20062;-70
2023/09/06 01:34:14;;;;;;;8.10;4.68;;;23.90;99.90;;;;;;4975472;28;20105;-70
2023/09/06 01:36:41;;;;;;;7.88;4.13;;;23.90;99.90;;;;;;4975308;28;20019;-70
2023/09/06 01:39:08;;;;;;;6.43;4.35;;;23.90;99.90;;;;;;4975479;28;20031;-70
2023/09/06 01:41:33;;;;;;;5.07;4.32;;;23.80;99.90;;;;;;4974719;28;20058;-70
2023/09/06 01:44:00;;;;;;;5.20;4.50;;;23.90;99.90;;;;;;4975408;28;20050;-70
2023/09/06 01:46:26;;;;;;;5.65;4.18;;;23.80;99.90;;;;;;4975286;28;20029;-71
2023/09/06 01:48:52;;;;;;;6.47;3.72;;;23.80;99.90;;;;;;4975422;28;20027;-70
2023/09/06 01:51:17;;;;;;;7.88;4.15;;;23.80;99.90;;;;;;4975223;28;20026;-71
2023/09/06 01:53:43;;;;;;;5.70;4.03;;;23.80;99.90;;;;;;4975100;28;20103;-70
2023/09/06 01:56:09;;;;;;;5.47;4.35;;;23.80;99.90;;;;;;4974991;28;20460;-70
2023/09/06 01:58:35;;;;;;;8.38;3.92;;;23.80;99.90;;;;;;4973553;28;20042;-69
2023/09/06 02:01:01;;;;;;;5.32;4.07;;;23.70;99.90;;;;;;4975155;28;20062;-70
2023/09/06 02:03:29;;;;;;;5.38;3.75;;;23.70;99.90;;;;;;4974931;28;20026;-70
2023/09/06 02:05:55;;;;;;;5.25;3.70;;;23.70;99.90;;;;;;4974944;28;20491;-76
2023/09/06 02:08:21;;;;;;;6.15;4.53;;;23.70;99.90;;;;;;4974686;28;20023;-71
2023/09/06 02:10:47;;;;;;;4.95;3.78;;;23.70;99.90;;;;;;4973363;28;20027;-72
2023/09/06 02:13:12;;;;;;;4.00;3.70;;;23.70;99.90;;;;;;4974763;28;20034;-75
2023/09/06 02:15:38;;;;;;;5.10;3.83;;;23.60;99.90;;;;;;4974820;28;20023;-71
2023/09/06 02:18:04;;;;;;;5.03;3.85;;;23.60;99.90;;;;;;4974561;28;20492;-71
2023/09/06 02:20:30;;;;;;;4.72;4.20;;;23.60;99.90;;;;;;4974598;28;20424;-73
2023/09/06 02:22:56;;;;;;;5.93;4.45;;;23.60;99.90;;;;;;4974780;28;20523;-75
2023/09/06 02:25:29;;;;;;;5.45;4.25;;;23.50;99.90;;;;;;4974378;28;20436;-71
2023/09/06 02:27:55;;;;;;;5.25;4.50;;;23.60;99.90;;;;;;4974493;28;20027;-74
2023/09/06 02:30:21;;;;;;;7.07;4.53;;;23.50;99.90;;;;;;4973406;28;20037;-74
2023/09/06 02:32:50;;;;;;;5.60;4.47;;;23.50;99.90;;;;;;4974442;28;20026;-75
2023/09/06 02:35:16;;;;;;;6.80;4.25;;;23.50;99.90;;;;;;4974670;28;20432;-75
2023/09/06 02:37:42;;;;;;;4.90;4.43;;;23.50;99.90;;;;;;4989175;28;20547;-75
2023/09/06 02:40:18;;;;;;;5.32;4.20;;;23.50;99.90;;;;;;4974507;28;20060;-75
2023/09/06 02:42:44;;;;;;;5.85;4.00;;;23.50;99.90;;;;;;4974268;28;20105;-75
2023/09/06 02:45:11;;;;;;;6.15;4.10;;;23.40;99.90;;;;;;4973288;28;20030;-75
2023/09/06 02:47:48;;;;;;;5.97;4.10;;;23.40;99.90;;;;;;4974238;28;20437;-74
2023/09/06 02:50:18;;;;;;;4.65;3.97;;;23.40;99.90;;;;;;4974409;28;20023;-74
2023/09/06 02:52:46;;;;;;;4.30;3.67;;;23.40;99.90;;;;;;4974239;28;20034;-71
2023/09/06 02:55:13;;;;;;;8.02;3.83;;;23.40;99.90;;;;;;4972775;28;20543;-75
2023/09/06 02:57:43;;;;;;;6.53;4.18;;;23.30;99.90;;;;;;4974298;28;20049;-75
2023/09/06 03:00:24;;;;;;;7.15;4.30;;;23.30;99.90;;;;;;4974315;28;20109;-70
2023/09/06 03:02:52;;;;;;;5.72;4.32;;;23.30;99.90;;;;;;4974091;28;20026;-70
2023/09/06 03:05:18;;;;;;;4.60;3.72;;;23.30;99.90;;;;;;4974291;28;20589;-70
2023/09/06 03:07:45;;;;;;;9.65;4.30;;;23.30;99.90;;;;;;4974317;28;20034;-70
2023/09/06 03:10:11;;;;;;;5.45;3.90;;;23.30;99.90;;;;;;4973807;28;20026;-70
2023/09/06 03:12:41;;;;;;;4.80;4.10;;;23.20;99.90;;;;;;4974137;28;20443;-70
2023/09/06 03:15:08;;;;;;;5.78;4.13;;;23.20;99.90;;;;;;4974095;28;20019;-75
2023/09/06 03:17:36;;;;;;;4.28;3.60;;;23.20;99.90;;;;;;4974024;28;20477;-75
2023/09/06 03:20:18;;;;;;;5.90;4.10;;;23.20;99.90;;;;;;4974036;28;20023;-75
2023/09/06 03:22:50;;;;;;;6.28;3.50;;;23.20;99.90;;;;;;4978782;28;20510;-75
2023/09/06 03:25:16;;;;;;;;;;;23.20;99.90;;;;;;4985419;28;20019;-73
2023/09/06 03:27:42;;;;;;;3.70;3.33;;;23.10;99.90;;;;;;4992582;28;19917;-74
2023/09/06 03:30:09;;;;;;;5.45;3.67;;;23.10;99.90;;;;;;4990741;28;20029;-72
2023/09/06 03:32:35;;;;;;;4.32;3.60;;;23.10;99.90;;;;;;4993116;28;20018;-74
2023/09/06 03:35:04;;;;;;;4.00;3.22;;;23.00;99.90;;;;;;4993399;28;20015;-73
2023/09/06 03:37:30;;;;;;;5.47;3.20;;;23.00;99.90;;;;;;4992883;28;20045;-73
2023/09/06 03:39:56;;;;;;;4.53;3.30;;;23.10;99.90;;;;;;4993415;28;20030;-73
2023/09/06 03:42:22;;;;;;;4.00;3.60;;;23.00;99.90;;;;;;4993418;28;20100;-73
2023/09/06 03:44:49;;;;;;;5.22;3.47;;;23.00;99.90;;;;;;4993238;28;20034;-70
2023/09/06 03:47:16;;;;;;;4.38;3.53;;;23.00;99.90;;;;;;4993506;28;20030;-70
2023/09/06 03:49:43;;;;;;;6.57;4.13;;;22.90;99.90;;;;;;4993216;28;20022;-69
2023/09/06 03:52:10;;;;;;;6.50;3.75;;;22.90;99.90;;;;;;4995474;28;20030;-69
2023/09/06 03:54:37;;;;;;;4.18;3.50;;;22.90;99.90;;;;;;4996660;28;20030;-70
2023/09/06 03:57:03;;;;;;;5.10;3.55;;;22.90;99.90;;;;;;4996681;28;20026;-70
2023/09/06 03:59:31;;;;;;;7.05;3.30;;;22.90;99.90;;;;;;4996655;28;20464;-69
2023/09/06 04:01:57;;;;;;;7.10;3.55;;;22.90;99.90;;;;;;4996676;28;20025;-70
2023/09/06 04:04:23;;;;;;;4.35;3.67;;;22.90;99.90;;;;;;4996656;28;20375;-70
2023/09/06 04:06:48;;;;;;;6.38;3.92;;;22.90;99.90;;;;;;4996302;28;20494;-69
2023/09/06 04:09:14;;;;;;;6.28;3.53;;;22.80;99.90;;;;;;4996512;28;20030;-69
2023/09/06 04:11:40;;;;;;;4.35;3.67;;;22.80;99.90;;;;;;4996318;28;20027;-69
2023/09/06 04:14:07;;;;;;;5.15;3.25;;;22.80;99.90;;;;;;4994309;28;20035;-70
2023/09/06 04:16:35;;;;;;;3.85;3.55;;;22.80;99.90;;;;;;4999066;28;20113;-70
2023/09/06 04:19:01;;;;;;;4.70;3.58;;;22.80;99.90;;;;;;5015044;28;20030;-70
2023/09/06 04:21:26;;;;;;;5.43;3.50;;;22.80;99.90;;;;;;5013055;28;20033;-73
2023/09/06 04:23:52;;;;;;;6.05;3.30;;;22.70;99.90;;;;;;5013687;28;20022;-70
2023/09/06 04:26:20;;;;;;;6.30;3.53;;;22.70;99.90;;;;;;5014535;28;20065;-71
2023/09/06 04:28:45;;;;;;;6.47;3.63;;;22.70;99.90;;;;;;5008545;28;20026;-72
2023/09/06 04:31:11;;;;;;;4.25;3.40;;;22.70;99.90;;;;;;5015609;28;20537;-72
2023/09/06 04:33:36;;;;;;;5.57;3.50;;;22.60;99.90;;;;;;5006417;28;20480;-71
2023/09/06 04:36:04;;;;;;;6.57;3.75;;;22.60;99.90;;;;;;4994228;28;20488;-72
2023/09/06 04:38:31;;;;;;;5.72;3.70;;;22.60;99.90;;;;;;4987835;28;20066;-71
2023/09/06 04:40:58;;;;;;;5.90;3.30;;;22.60;99.90;;;;;;4986231;28;20033;-72
2023/09/06 04:43:25;;;;;;;5.75;3.75;;;22.60;99.90;;;;;;4991128;28;20058;-73
2023/09/06 04:45:51;;;;;;;4.90;3.80;;;22.60;99.90;;;;;;4994372;28;20054;-73
2023/09/06 04:48:18;;;;;;;5.20;4.25;;;22.60;99.90;;;;;;5007599;28;20038;-74
2023/09/06 04:50:44;;;;;;;6.80;4.13;;;22.60;99.90;;;;;;5005863;28;20022;-72
2023/09/06 04:53:11;;;;;;;6.97;4.20;;;22.60;99.90;;;;;;4997742;28;20042;-73
2023/09/06 04:55:40;;;;;;;7.75;3.47;;;22.70;99.90;;;;;;5006977;28;20030;-73
2023/09/06 04:58:08;;;;;;;4.03;3.60;;;22.70;99.90;;;;;;4994649;28;20584;-73
2023/09/06 05:00:37;;;;;;;11.82;4.97;;;22.80;99.90;;;;;;5004219;28;20383;-73
2023/09/06 05:03:05;;;;;;;6.00;3.80;;;22.80;99.90;;;;;;4996675;28;20022;-73
2023/09/06 05:05:30;;;;;;;12.63;4.18;;;22.80;99.90;;;;;;4991636;28;20492;-73
2023/09/06 05:07:56;;;;;;;5.50;4.18;;;22.80;99.90;;;;;;4997343;28;20048;-74
2023/09/06 05:10:22;;;;;;;4.97;3.22;;;22.80;99.90;;;;;;4995390;28;20030;-74
2023/09/06 05:12:48;;;;;;;6.80;3.35;;;22.80;99.90;;;;;;4987751;28;20039;-75
2023/09/06 05:15:14;;;;;;;6.63;4.35;;;22.80;99.90;;;;;;4989942;28;20031;-73
2023/09/06 05:17:40;;;;;;;7.35;4.03;;;22.80;99.90;;;;;;4975465;28;20039;-74
2023/09/06 05:20:29;;;;;;;4.45;3.60;;;22.80;99.90;;;;;;4999446;28;20026;-73
2023/09/06 05:23:04;;;;;;;4.53;3.83;;;22.80;99.90;;;;;;4996002;28;20026;-74
2023/09/06 05:25:31;;;;;;;8.90;4.30;;;22.80;99.90;;;;;;4997260;28;20022;-75
2023/09/06 05:28:02;;;;;;;8.43;4.40;;;22.80;99.90;;;;;;5003560;28;20022;-75
2023/09/06 05:30:28;;;;;;;8.82;4.35;;;22.70;99.90;;;;;;5006367;28;20041;-73
2023/09/06 05:32:57;;;;;;;5.18;4.00;;;22.70;99.90;;;;;;4993688;28;20026;-75
2023/09/06 05:35:24;;;;;;;9.95;4.50;;;22.70;99.90;;;;;;4994275;28;20463;-74
2023/09/06 05:37:50;;;;;;;6.07;4.25;;;22.70;99.90;;;;;;4984146;28;20095;-75
2023/09/06 05:40:22;;;;;;;7.75;5.05;;;22.70;99.90;;;;;;5007096;28;20023;-74
2023/09/06 05:42:51;;;;;;;6.90;4.00;;;22.70;99.90;;;;;;4994000;28;20030;-74
2023/09/06 05:45:19;;;;;;;6.45;4.13;;;22.70;99.90;;;;;;4994595;28;20097;-74
2023/09/06 05:47:44;;;;;;;6.90;4.07;;;22.60;99.90;;;;;;4990100;28;20042;-73
2023/09/06 05:50:10;;;;;;;6.43;4.30;;;22.60;99.90;;;;;;4996282;28;20368;-75
2023/09/06 05:52:36;;;;;;;4.88;3.88;;;22.60;99.90;;;;;;4991906;28;20057;-74
2023/09/06 05:55:01;;;;;;;6.57;4.63;;;22.70;99.90;;;;;;4991695;28;20045;-74
2023/09/06 05:57:27;;;;;;;5.55;4.03;;;22.60;99.90;;;;;;4993757;28;20034;-74
2023/09/06 05:59:53;;;;;;;20.85;5.72;;;22.60;99.90;;;;;;4990834;28;20041;-73
2023/09/06 06:02:19;;;;;;;8.38;4.88;;;22.60;99.90;;;;;;4992307;28;20054;-74
2023/09/06 06:04:47;;;;;;;7.45;4.40;;;22.50;99.90;;;;;;4991185;28;20450;-75
2023/09/06 06:07:15;;;;;;;5.88;4.38;;;22.40;99.90;;;;;;4990809;28;20047;-74
2023/09/06 06:09:42;;;;;;;4.90;4.43;;;22.40;99.90;;;;;;4990538;28;20442;-74
2023/09/06 06:12:08;;;;;;;7.43;5.32;;;22.40;99.90;;;;;;4991097;28;20030;-74
2023/09/06 06:14:35;;;;;;;7.43;4.45;;;22.50;99.90;;;;;;4993450;28;20476;-73
2023/09/06 06:17:03;;;;;;;10.70;5.53;;;22.50;99.90;;;;;;4992412;28;20026;-73
2023/09/06 06:19:29;;;;;;;7.82;4.72;;;22.50;99.90;;;;;;4993624;28;20407;-73
2023/09/06 06:21:54;;;;;;;7.13;4.10;;;22.50;99.90;;;;;;4992130;28;20541;-72
2023/09/06 06:24:20;;;;;;;4.97;4.40;;;22.50;99.90;;;;;;4992359;28;20031;-73
2023/09/06 06:26:46;;;;;;;6.50;4.07;;;22.50;99.90;;;;;;4989893;28;20108;-73
2023/09/06 06:29:11;;;;;;;6.72;4.18;;;22.60;99.90;;;;;;4988427;28;20034;-72
2023/09/06 06:31:37;;;;;;;7.50;4.32;;;22.50;99.90;;;;;;4990147;28;20403;-73
2023/09/06 06:34:03;;;;;;;7.60;4.22;;;22.50;99.90;;;;;;4992581;28;20057;-73
2023/09/06 06:36:31;;;;;;;6.50;4.28;;;22.50;99.90;;;;;;4992174;28;20030;-73
2023/09/06 06:38:57;;;;;;;4.95;4.07;;;22.50;99.90;;;;;;4992194;28;20559;-73
2023/09/06 06:41:23;;;;;;;10.73;4.30;;;22.50;99.90;;;;;;4991159;28;20101;-73
2023/09/06 06:43:52;;;;;;;7.18;4.43;;;22.60;99.90;;;;;;4991102;28;20380;-73
2023/09/06 06:46:25;;;;;;;4.72;4.00;;;22.60;99.90;;;;;;4990546;28;20113;-73
2023/09/06 06:48:51;;;;;;;5.88;3.95;;;22.60;99.90;;;;;;4992117;28;20125;-74
2023/09/06 06:51:16;;;;;;;6.97;3.70;;;22.60;99.90;;;;;;4991683;28;20579;-74
2023/09/06 06:53:42;;;;;;;6.82;3.70;;;22.60;99.90;;;;;;4992244;28;20058;-73
2023/09/06 06:56:07;;;;;;;5.45;4.10;;;22.60;99.90;;;;;;4992791;28;20496;-73
2023/09/06 06:58:33;;;;;;;6.50;3.83;;;22.60;99.90;;;;;;4991018;28;20484;-72
2023/09/06 07:01:00;;;;;;;8.05;4.05;;;22.60;99.90;;;;;;4991915;28;20026;-73
2023/09/06 07:03:26;;;;;;;5.63;3.70;;;22.60;99.90;;;;;;4992433;28;20030;-75
2023/09/06 07:05:52;;;;;;;7.55;3.50;;;22.70;99.90;;;;;;4993426;28;20045;-74
2023/09/06 07:08:17;;;;;;;8.15;4.05;;;22.70;99.90;;;;;;4993306;28;20109;-74
2023/09/06 07:10:43;;;;;;;6.32;4.35;;;22.80;99.90;;;;;;4990151;28;20090;-74
2023/09/06 07:13:09;;;;;;;6.68;3.80;;;22.80;99.90;;;;;;4992628;28;20035;-74
2023/09/06 07:15:35;;;;;;;6.53;3.80;;;22.80;99.90;;;;;;4993128;28;20034;-74
2023/09/06 07:18:04;;;;;;;7.13;3.60;;;22.80;99.90;;;;;;4992346;28;20101;-74
2023/09/06 07:20:30;;;;;;;8.30;3.80;;;22.90;99.90;;;;;;4991692;28;20161;-74
2023/09/06 07:22:55;;;;;;;6.72;3.40;;;22.90;99.90;;;;;;4993369;28;20065;-74
2023/09/06 07:25:21;;;;;;;5.93;3.28;;;22.90;99.90;;;;;;4993276;28;20535;-74
2023/09/06 07:27:47;;;;;;;8.90;3.15;;;23.00;99.90;;;;;;4996110;28;20041;-74
2023/09/06 07:30:12;;;;;;;7.30;3.40;;;23.00;99.90;;;;;;4996000;28;20451;-75
2023/09/06 07:32:38;;;;;;;6.85;3.83;;;23.10;99.90;;;;;;4995185;28;20498;-74
2023/09/06 07:35:06;;;;;;;8.57;3.25;;;23.10;99.90;;;;;;4994920;28;20026;-75
2023/09/06 07:37:31;;;;;;;8.40;3.08;;;23.20;99.90;;;;;;4994472;28;20392;-74
2023/09/06 07:40:00;;;;;;;6.63;3.25;;;23.20;99.90;;;;;;4997168;28;20034;-74
2023/09/06 07:42:26;;;;;;;6.10;3.13;;;23.30;99.90;;;;;;4994492;28;20464;-74
2023/09/06 07:44:52;;;;;;;4.45;3.17;;;23.30;99.90;;;;;;4996006;28;20033;-75
2023/09/06 07:47:18;;;;;;;4.10;2.75;;;23.30;99.90;;;;;;4995879;28;20038;-74
2023/09/06 07:49:43;;;;;;;7.40;3.65;;;23.40;99.90;;;;;;4996819;28;20037;-76
2023/09/06 07:52:09;;;;;;;6.63;3.38;;;23.40;99.90;;;;;;4995691;28;20361;-74
2023/09/06 07:54:34;;;;;;;7.05;3.60;;;23.50;99.90;;;;;;5005551;28;20034;-75
2023/09/06 07:57:00;;;;;;;9.15;3.70;;;23.50;99.90;;;;;;4996642;28;20081;-74
2023/09/06 07:59:26;;;;;;;5.63;3.30;;;23.60;99.90;;;;;;4994894;28;20034;-75
2023/09/06 08:01:53;;;;;;;4.32;3.28;;;23.60;99.90;;;;;;4993829;28;20030;-74
2023/09/06 08:04:19;;;;;;;4.70;3.22;;;23.70;99.90;;;;;;4995630;28;20034;-75
2023/09/06 08:06:47;;;;;;;6.80;4.10;;;23.70;99.90;;;;;;4995815;28;20042;-74
2023/09/06 08:09:13;;;;;;;5.30;3.55;;;23.70;99.90;;;;;;5008309;28;20034;-74
2023/09/06 08:11:39;;;;;;;8.70;3.63;;;23.80;99.90;;;;;;4995944;28;20494;-74
2023/09/06 08:14:04;;;;;;;4.90;3.38;;;23.80;99.90;;;;;;5002739;28;20181;-74
2023/09/06 08:16:31;;;;;;;8.30;3.33;;;23.80;99.90;;;;;;5003971;28;20365;-74
2023/09/06 08:18:57;;;;;;;4.72;3.10;;;23.90;99.90;;;;;;4989515;28;20177;-74
2023/09/06 08:21:22;;;;;;;6.60;3.00;;;23.90;99.90;;;;;;4975384;28;20105;-71
2023/09/06 08:23:48;;;;;;;6.68;2.95;;;23.90;99.90;;;;;;4972808;28;20038;-74
2023/09/06 08:26:14;;;;;;;4.40;3.05;;;24.00;99.90;;;;;;4978546;28;20034;-73
2023/09/06 08:28:40;;;;;;;3.60;3.05;;;24.00;99.90;;;;;;4980471;28;20369;-73
2023/09/06 08:31:06;;;;;;;5.63;3.17;;;24.00;99.90;;;;;;4987939;28;20384;-74
2023/09/06 08:33:32;;;;;;;4.90;3.00;;;24.00;99.90;;;;;;4976631;28;20030;-73
2023/09/06 08:35:58;;;;;;;4.32;2.58;;;24.00;99.90;;;;;;4974626;28;20027;-73
2023/09/06 08:38:24;;;;;;;7.32;3.33;;;24.10;99.90;;;;;;4974683;28;20416;-74
2023/09/06 08:40:50;;;;;;;4.40;2.92;;;24.10;99.90;;;;;;4974495;28;20102;-74
2023/09/06 08:43:18;;;;;;;6.70;2.35;;;24.10;99.90;;;;;;4977257;28;20031;-74
2023/09/06 08:45:47;;;;;;;5.35;2.90;;;24.10;99.80;;;;;;4976200;28;20015;-73
2023/09/06 08:48:14;;;;;;;8.07;2.70;;;24.10;99.70;;;;;;4973493;28;20484;-73
2023/09/06 08:50:40;;;;;;;7.63;2.78;;;24.20;99.90;;;;;;4974932;28;20031;-73
2023/09/06 08:53:09;;;;;;;5.25;2.72;;;24.20;99.40;;;;;;4978113;28;20061;-73
2023/09/06 08:55:35;;;;;;;5.45;2.90;;;24.20;99.50;;;;;;4981797;28;20037;-73
2023/09/06 08:58:03;;;;;;;5.88;2.78;;;24.20;99.60;;;;;;4979437;28;20492;-73
2023/09/06 09:00:30;;;;;;;6.57;2.92;;;24.30;99.60;;;;;;4990930;28;20031;-73
2023/09/06 09:02:57;;;;;;;4.30;2.67;;;24.30;99.30;;;;;;4994919;28;20038;-73
2023/09/06 09:05:23;;;;;;;8.38;2.60;;;24.30;99.50;;;;;;4993534;28;20030;-72
2023/09/06 09:07:59;;;;;;;3.80;2.30;;;24.30;99.40;;;;;;4977689;28;20526;-72
2023/09/06 09:10:28;;;;;;;3.92;2.70;;;24.30;99.30;;;;;;4974421;28;20464;-72
2023/09/06 09:12:55;;;;;;;7.22;3.03;;;24.30;99.50;;;;;;4979727;28;20026;-72
2023/09/06 09:15:25;;;;;;;4.28;2.90;;;24.30;99.50;;;;;;4988355;28;20500;-76
2023/09/06 09:17:51;;;;;;;3.58;2.72;;;24.30;99.60;;;;;;4983447;28;20075;-73
2023/09/06 09:20:18;;;;;;;6.97;2.50;;;24.30;99.70;;;;;;4986434;28;20022;-72
2023/09/06 09:22:44;;;;;;;7.60;2.67;;;24.30;99.50;;;;;;4965571;28;20030;-74
2023/09/06 09:25:16;;;;;;;8.88;3.10;;;24.30;99.50;;;;;;4961720;28;20101;-72
2023/09/06 09:27:44;;;;;;;4.90;2.72;;;24.40;99.40;;;;;;4972203;28;20086;-72
2023/09/06 09:30:12;;;;;;;8.38;3.08;;;24.40;99.60;;;;;;4977930;28;20049;-73
2023/09/06 09:32:39;;;;;;;4.07;2.38;;;24.40;99.70;;;;;;4993551;28;20105;-72
2023/09/06 09:35:10;;;;;;;5.10;2.70;;;24.40;99.70;;;;;;4981769;28;20109;-73
2023/09/06 09:37:38;;;;;;;4.63;2.30;;;24.40;99.70;;;;;;4975604;28;20034;-73
2023/09/06 09:40:22;;;;;;;7.43;2.72;;;24.40;99.80;;;;;;4962549;28;20042;-74
2023/09/06 09:42:55;;;;;;;4.82;2.45;;;24.40;99.90;;;;;;4959766;28;20041;-72
2023/09/06 09:45:23;;;;;;;3.38;2.75;;;24.40;99.80;;;;;;4975234;28;20031;-72
2023/09/06 09:47:49;;;;;;;4.90;2.40;;;24.40;99.70;;;;;;4980023;28;20027;-72
2023/09/06 09:50:16;;;;;;;5.22;2.55;;;24.40;99.90;;;;;;4971285;28;20038;-73
2023/09/06 09:52:44;;;;;;;6.40;2.65;;;24.50;99.90;;;;;;4972891;28;20114;-72
2023/09/06 09:55:15;;;;;;;5.75;2.95;;;24.50;99.80;;;;;;4955239;28;20063;-72
2023/09/06 09:57:45;;;;;;;4.57;2.70;;;24.50;99.90;;;;;;4973956;28;20125;-73
2023/09/06 10:00:14;;;;;;;3.78;2.47;;;24.60;99.70;;;;;;4975883;28;20106;-72
2023/09/06 10:02:45;;;;;;;5.90;2.72;;;24.60;99.70;;;;;;4972877;28;20015;-73
2023/09/06 10:05:16;;;;;;;5.30;2.78;;;24.60;99.70;;;;;;4992126;28;20026;-73
2023/09/06 10:07:43;;;;;;;6.97;2.70;;;24.60;99.60;;;;;;4978159;28;20447;-69
2023/09/06 10:10:12;;;;;;;4.65;2.25;;;24.60;99.70;;;;;;4975449;28;20439;-73
2023/09/06 10:12:44;;;;;;;5.15;2.72;;;24.60;99.80;;;;;;4976179;28;20034;-72
2023/09/06 10:15:15;;;;;;;4.82;2.63;;;24.60;99.40;;;;;;4985326;28;20022;-73
2023/09/06 10:17:47;;;;;;;5.43;2.65;;;24.60;99.50;;;;;;4961634;28;20081;-72
2023/09/06 10:20:14;;;;;;;4.18;2.28;;;24.60;99.70;;;;;;4990197;28;20034;-72
2023/09/06 10:22:46;;;;;;;5.45;2.22;;;24.60;99.40;;;;;;5009767;28;20030;-72
2023/09/06 10:25:14;;;;;;;4.00;2.17;;;24.60;99.10;;;;;;5002799;28;20038;-73
2023/09/06 10:27:47;;;;;;;3.45;2.20;;;24.70;99.30;;;;;;5001341;28;20026;-73
2023/09/06 10:30:17;;;;;;;;;;;24.70;99.10;;;;;;5002724;28;20025;-75
2023/09/06 10:32:46;;;;;;;2.55;1.67;;;24.70;98.50;;;;;;4998543;28;20502;-73
2023/09/06 10:35:24;;;;;;;4.28;1.77;;;24.70;98.10;;;;;;4999769;28;20153;-73
2023/09/06 10:38:14;;;;;;;2.70;2.13;;;24.70;97.60;;;;;;4995902;28;20034;-73
2023/09/06 10:40:49;;;;;;;4.35;2.17;;;24.70;98.80;;;;;;5011283;28;20036;-74
2023/09/06 10:43:29;;;;;;;3.50;1.77;;;24.70;99.20;;;;;;4993228;28;20472;-72
2023/09/06 10:46:26;;;;;;;5.70;2.20;;;24.70;98.80;;;;;;4995240;28;20495;-72
2023/09/06 10:49:14;;;;;;;7.07;2.10;;;24.80;99.70;;;;;;4987295;28;20034;-72
2023/09/06 10:52:00;;;;;;;3.67;1.65;;;24.80;99.90;;;;;;5006301;28;20096;-72
2023/09/06 10:54:40;;;;;;;4.03;1.85;;;24.80;99.10;;;;;;4992312;28;20034;-72
2023/09/06 10:57:07;;;;;;;3.22;1.70;;;24.80;99.00;;;;;;4994176;28;20041;-72
2023/09/06 10:59:43;;;;;;;4.63;1.80;;;24.80;98.30;;;;;;4999111;28;20030;-72
2023/09/06 11:02:26;;;;;;;3.33;2.22;;;24.80;99.60;;;;;;4998817;28;20455;-76
2023/09/06 11:05:31;;;;;;;5.10;2.30;;;24.80;99.90;;;;;;4990045;28;20019;-72
2023/09/06 11:07:56;;;;;;;4.35;2.08;;;24.80;99.90;;;;;;4990274;28;20113;-74
2023/09/06 11:10:22;;;;;;;3.10;1.95;;;24.80;99.80;;;;;;5000964;28;20176;-73
2023/09/06 11:12:48;;;;;;;2.35;2.00;;;24.90;99.60;;;;;;4992049;28;20084;-75
2023/09/06 11:15:13;;;;;;;3.78;1.65;;;24.90;99.30;;;;;;4994172;28;20494;-72
2023/09/06 11:17:39;;;;;;;4.97;1.98;;;25.00;99.10;;;;;;4990961;28;20034;-71
2023/09/06 11:20:13;;;;;;;4.13;1.92;;;25.00;99.00;;;;;;4993674;28;20030;-73
2023/09/06 11:22:56;;;;;;;6.47;1.98;;;25.00;98.90;;;;;;4992273;28;20034;-71
2023/09/06 11:25:23;;;;;;;2.42;1.88;;;25.00;98.20;;;;;;4989538;28;20056;-72
2023/09/06 11:27:50;;;;;;;4.95;1.80;;;25.00;98.90;;;;;;4991793;28;20034;-71
2023/09/06 11:30:18;;;;;;;2.78;1.75;;;25.00;98.00;;;;;;5000002;28;20073;-72
2023/09/06 11:32:49;;;;;;;4.07;1.98;;;25.00;98.20;;;;;;4994155;28;20022;-70
2023/09/06 11:35:15;;;;;;;3.60;1.75;;;25.10;98.40;;;;;;4987779;28;20023;-71
2023/09/06 11:37:49;;;;;;;3.72;1.63;;;25.00;98.40;;;;;;4993135;28;20038;-70
2023/09/06 11:40:19;;;;;;;3.80;1.48;;;25.10;98.40;;;;;;4992396;28;20026;-69
2023/09/06 11:42:56;;;;;;;3.67;1.42;;;25.20;97.00;;;;;;4990223;28;20026;-70
2023/09/06 11:45:22;;;;;;;2.85;1.77;;;25.20;96.90;;;;;;4990105;28;20026;-72
2023/09/06 11:47:48;;;;;;;4.65;1.52;;;25.20;97.10;;;;;;4988426;28;20033;-73
2023/09/06 11:50:19;;;;;;;5.50;1.95;;;25.20;97.70;;;;;;4987365;28;20037;-72
2023/09/06 11:52:53;;;;;;;4.25;1.70;;;25.20;99.20;;;;;;4993367;28;20030;-72
2023/09/06 11:55:21;;;;;;;3.60;1.40;;;25.20;98.10;;;;;;4996793;28;20035;-70
2023/09/06 11:57:57;;;;;;;4.40;2.03;;;25.20;96.80;;;;;;4992667;28;20022;-71
2023/09/06 12:00:42;;;;;;;5.25;1.67;;;25.20;97.60;;;;;;4994037;28;20034;-70
2023/09/06 12:03:13;;;;;;;3.53;1.30;;;25.20;96.80;;;;;;4987307;28;20030;-75
2023/09/06 12:05:41;;;;;;;3.20;1.65;;;25.30;96.20;;;;;;4991363;28;20526;-71
2023/09/06 12:08:08;;;;;;;2.10;1.17;;;25.30;96.20;;;;;;4993594;28;20022;-72
2023/09/06 12:10:35;;;;;;;7.82;1.90;;;25.30;96.60;;;;;;4989268;28;20038;-71
2023/09/06 12:13:04;;;;;;;4.15;1.73;;;25.30;96.70;;;;;;4992658;28;20037;-70
2023/09/06 12:15:30;;;;;;;2.38;1.48;;;25.30;97.30;;;;;;4985878;28;20050;-70
2023/09/06 12:17:56;;;;;;;2.88;1.70;;;25.30;96.70;;;;;;4992198;28;20499;-71
2023/09/06 12:20:23;;;;;;;2.20;1.30;;;25.30;96.40;;;;;;4981327;28;20130;-73
2023/09/06 12:22:50;;;;;;;2.67;1.30;;;25.30;97.00;;;;;;4986044;28;20575;-70
2023/09/06 12:25:20;;;;;;;2.83;1.10;;;25.30;96.00;;;;;;4990476;28;20018;-69
2023/09/06 12:27:47;;;;;;;2.35;1.65;;;25.40;96.20;;;;;;4991233;28;20033;-72
2023/09/06 12:30:18;;;;;;;3.83;1.67;;;25.40;95.60;;;;;;4981121;28;20027;-72
2023/09/06 12:32:45;;;;;;;2.63;1.27;;;25.40;94.70;;;;;;4991164;28;20030;-72
2023/09/06 12:35:11;;;;;;;4.78;1.60;;;25.40;96.50;;;;;;4989054;28;20042;-72
2023/09/06 12:37:37;;;;;;;2.80;1.48;;;25.40;96.80;;;;;;4985790;28;20088;-73
2023/09/06 12:40:09;;;;;;;2.92;1.40;;;25.40;94.70;;;;;;4988374;28;20392;-73
2023/09/06 12:42:45;;;;;;;3.17;1.23;;;25.40;96.90;;;;;;4981701;28;20026;-71
2023/09/06 12:45:41;;;;;;;2.78;1.15;;;25.40;97.20;;;;;;4984762;28;21681;-71
2023/09/06 12:48:07;;;;;;;2.55;1.58;;;25.40;97.00;;;;;;4976895;28;20038;-72
2023/09/06 12:50:32;;;;;;;2.42;1.55;;;25.30;98.10;;;;;;4987547;28;20503;-71
2023/09/06 12:52:58;;;;;;;4.97;1.67;;;25.40;97.30;;;;;;4990250;28;20396;-71